createdAt,value
2022-11-08T00:01:42.104Z,97356.38
2022-11-08T00:12:02.791Z,97362.44
2022-11-08T00:22:05.226Z,97367.38
2022-11-08T00:32:11.160Z,97367.94
2022-11-08T00:42:13.723Z,97367.66
2022-11-08T00:52:16.005Z,97370.06
2022-11-08T01:02:18.458Z,97373.38
2022-11-08T01:12:20.799Z,97363.78
2022-11-08T01:22:23.138Z,97361.09
2022-11-08T01:32:25.458Z,97352.31
2022-11-08T01:42:31.390Z,97338.72
2022-11-08T01:52:47.627Z,97317.94
2022-11-08T02:02:55.124Z,97296.19
2022-11-08T02:12:59.673Z,97300.72
2022-11-08T02:23:20.537Z,97294.00
2022-11-08T02:33:23.516Z,97283.03
2022-11-08T02:43:26.600Z,97289.00
2022-11-08T02:53:29.024Z,97281.00
2022-11-08T03:03:31.267Z,97287.72
2022-11-08T03:13:33.534Z,97280.88
2022-11-08T03:23:35.869Z,97272.91
2022-11-08T03:33:38.189Z,97281.81
2022-11-08T03:43:40.445Z,97280.66
2022-11-08T03:53:42.789Z,97280.56
2022-11-08T04:03:45.357Z,97282.53
2022-11-08T04:14:06.694Z,97280.91
2022-11-08T04:24:08.986Z,97283.47
2022-11-08T04:34:11.426Z,97288.50
2022-11-08T04:44:15.706Z,97278.88
2022-11-08T04:54:18.059Z,97287.06
2022-11-08T05:04:20.344Z,97277.72
2022-11-08T05:14:22.648Z,97290.97
2022-11-08T05:24:24.965Z,97290.78
2022-11-08T05:34:27.250Z,97292.88
2022-11-08T05:44:29.645Z,97299.78
2022-11-08T05:54:32.662Z,97316.22
2022-11-08T06:04:34.988Z,97321.94
2022-11-08T06:14:37.299Z,97315.44
2022-11-08T06:24:39.841Z,97327.47
2022-11-08T06:34:42.280Z,97323.28
2022-11-08T06:44:44.891Z,97318.34
2022-11-08T06:54:47.608Z,97318.75
2022-11-08T07:04:50.169Z,97325.03
2022-11-08T07:14:52.708Z,97317.53
2022-11-08T07:24:55.111Z,97322.31
2022-11-08T07:34:57.499Z,97320.84
2022-11-08T07:45:00.194Z,97316.56
2022-11-08T07:55:02.775Z,97318.34
2022-11-08T08:05:05.788Z,97322.03
2022-11-08T08:15:08.799Z,97314.53
2022-11-08T08:25:11.666Z,97311.72
2022-11-08T08:35:14.429Z,97299.88
2022-11-08T08:45:16.884Z,97304.72
2022-11-08T08:55:19.422Z,97295.47
2022-11-08T09:05:21.939Z,97306.38
2022-11-08T09:15:24.500Z,97292.56
2022-11-08T09:25:27.112Z,97290.75
2022-11-08T09:35:30.573Z,97279.91
2022-11-08T09:45:46.688Z,97268.88
2022-11-08T09:55:59.547Z,97263.25
2022-11-08T10:06:31.055Z,97249.66
2022-11-08T10:16:51.947Z,97241.47
2022-11-08T10:26:58.157Z,97230.56
2022-11-08T10:37:06.603Z,97216.03
2022-11-08T10:47:35.402Z,97204.66
2022-11-08T10:57:45.397Z,97194.91
2022-11-08T11:07:57.568Z,97183.13
2022-11-08T11:18:17.427Z,97167.41
2022-11-08T11:28:20.309Z,97157.66
2022-11-08T11:38:44.221Z,97146.97
2022-11-08T11:48:52.158Z,97148.50
2022-11-08T11:59:32.211Z,97142.94
2022-11-08T12:09:56.344Z,97144.22
2022-11-08T12:20:22.767Z,97130.25
2022-11-08T12:30:40.382Z,97123.41
2022-11-08T12:41:01.023Z,97122.41
2022-11-08T12:51:36.819Z,97114.81
2022-11-08T13:01:39.380Z,97094.91
2022-11-08T13:12:09.317Z,97070.91
2022-11-08T13:22:32.276Z,97076.03
2022-11-08T13:32:54.047Z,97067.09
2022-11-08T13:42:58.556Z,97071.75
2022-11-08T13:53:18.945Z,97069.53
2022-11-08T14:03:47.406Z,97074.59
2022-11-08T14:14:12.564Z,97071.66
2022-11-08T14:24:22.589Z,97061.22
2022-11-08T14:34:31.598Z,97059.69
2022-11-08T14:44:35.137Z,97056.59
2022-11-08T14:54:40.530Z,97059.28
2022-11-08T15:04:42.760Z,97047.56
2022-11-08T15:14:57.668Z,97064.47
2022-11-08T15:25:15.652Z,97082.09
2022-11-08T15:35:38.503Z,97062.06
2022-11-08T15:45:52.887Z,97047.84
2022-11-08T15:56:02.746Z,97053.03
2022-11-08T16:06:05.065Z,97035.56
2022-11-08T16:16:12.185Z,97040.56
2022-11-08T16:26:17.267Z,97055.47
2022-11-08T16:36:24.635Z,97063.59
2022-11-08T16:46:27.063Z,97070.16
2022-11-08T16:56:29.493Z,97033.25
2022-11-08T17:06:31.860Z,97025.56
2022-11-08T17:16:34.135Z,97031.06
2022-11-08T17:26:36.422Z,97038.66
2022-11-08T17:36:38.615Z,97033.56
2022-11-08T17:46:40.859Z,97038.41
2022-11-08T17:56:43.063Z,97040.31
2022-11-08T18:06:45.385Z,97033.38
2022-11-08T18:16:49.236Z,97046.56
2022-11-08T18:26:51.620Z,97047.69
2022-11-08T18:36:54.060Z,97055.59
2022-11-08T18:46:56.230Z,97066.97
2022-11-08T18:56:58.584Z,97080.56
2022-11-08T19:07:00.845Z,97082.66
2022-11-08T19:17:03.096Z,97073.16
2022-11-08T19:27:06.197Z,97091.19
2022-11-08T19:37:08.441Z,97082.16
2022-11-08T19:47:10.623Z,97092.44
2022-11-08T19:57:12.855Z,97093.47
2022-11-08T20:07:15.170Z,97087.75
2022-11-08T20:17:17.826Z,97103.88
2022-11-08T20:27:20.065Z,97113.94
2022-11-08T20:37:22.233Z,97109.31
2022-11-08T20:47:24.449Z,97100.03
2022-11-08T20:57:26.595Z,97105.47
2022-11-08T21:17:50.959Z,97085.78
2022-11-08T21:27:53.195Z,97076.31
2022-11-08T21:40:13.952Z,97091.28
2022-11-08T21:50:16.426Z,97084.44
2022-11-08T22:00:18.815Z,97071.44
2022-11-08T22:10:21.036Z,97078.28
2022-11-08T22:20:23.277Z,97062.47
2022-11-08T22:30:25.424Z,97067.81
2022-11-08T22:40:27.598Z,97064.47
2022-11-08T22:50:29.742Z,97076.91
2022-11-08T23:00:31.915Z,97074.28
2022-11-08T23:10:54.506Z,97079.25
2022-11-08T23:21:15.162Z,97083.50
2022-11-08T23:31:35.497Z,97073.06
2022-11-08T23:41:56.127Z,97055.94
2022-11-08T23:51:58.365Z,97057.69
